Time;durP1;ratioP1;P1;durP2;ratioP2;P2;SDS_P1;SDS_P2;PMS_P1;PMS_P2;Temp;Humidity;BMP_temperature;BMP_pressure;BME280_temperature;BME280_humidity;BME280_pressure;Samples;Min_cycle;Max_cycle;Signal;HPM_P1;HPM_P2
2024/04/02 00:00:50;;;;;;;10.48;3.17;;;;;;;4.83;60.79;99891.00;5017528;28;20033;-71
2024/04/02 00:03:16;;;;;;;5.60;2.78;;;;;;;4.95;60.30;99894.13;5008954;28;20246;-71
2024/04/02 00:05:42;;;;;;;14.23;2.85;;;;;;;4.93;60.35;99890.75;5016698;28;20094;-71
2024/04/02 00:08:08;;;;;;;6.60;2.83;;;;;;;4.89;60.51;99894.31;5012120;28;20052;-71
2024/04/02 00:10:36;;;;;;;6.68;3.10;;;;;;;4.77;60.61;99886.00;5015046;28;20036;-71
2024/04/02 00:13:02;;;;;;;5.63;2.38;;;;;;;4.86;60.39;99889.22;5009231;28;20132;-71
2024/04/02 00:15:28;;;;;;;7.68;2.80;;;;;;;5.14;59.15;99895.19;5013031;28;20060;-71
2024/04/02 00:17:54;;;;;;;6.00;2.15;;;;;;;4.95;59.92;99894.13;5028750;28;20037;-71
2024/04/02 00:20:22;;;;;;;5.53;2.65;;;;;;;4.83;59.91;99890.13;5015512;28;20963;-72
2024/04/02 00:22:47;;;;;;;6.07;2.22;;;;;;;4.73;60.38;99884.41;5015325;28;20098;-70
2024/04/02 00:25:13;;;;;;;9.18;2.53;;;;;;;4.64;60.64;99884.69;5007417;28;20581;-68
2024/04/02 00:27:39;;;;;;;14.98;3.95;;;;;;;4.79;60.64;99889.41;5016317;28;20821;-68
2024/04/02 00:30:05;;;;;;;6.38;2.65;;;;;;;4.09;61.78;99896.69;5016322;28;20479;-68
2024/04/02 00:32:31;;;;;;;6.85;2.67;;;;;;;4.39;61.32;99900.13;5013386;28;21959;-69
2024/04/02 00:34:57;;;;;;;5.07;2.13;;;;;;;4.75;60.40;99897.31;4994305;28;20107;-69
2024/04/02 00:37:23;;;;;;;9.27;2.53;;;;;;;4.58;60.89;99895.25;5017007;28;20178;-70
2024/04/02 00:39:48;;;;;;;8.40;2.70;;;;;;;4.94;59.73;99893.25;5041802;28;20037;-69
2024/04/02 00:42:14;;;;;;;3.25;2.00;;;;;;;4.75;60.51;99892.97;5007957;28;21483;-69
2024/04/02 00:44:40;;;;;;;3.67;2.58;;;;;;;4.59;61.22;99899.53;5014994;28;20039;-70
2024/04/02 00:47:08;;;;;;;4.78;2.03;;;;;;;4.76;60.29;99884.31;5009657;28;20024;-69
2024/04/02 00:49:34;;;;;;;4.55;2.28;;;;;;;4.79;60.18;99891.16;5015736;28;20973;-69
2024/04/02 00:52:02;;;;;;;7.10;1.95;;;;;;;4.78;60.84;99892.88;5015962;28;20166;-69
2024/04/02 00:54:28;;;;;;;8.20;3.22;;;;;;;4.63;60.93;99898.53;4992188;28;20033;-69
2024/04/02 00:56:54;;;;;;;4.22;2.00;;;;;;;4.66;60.57;99895.03;5017126;28;20035;-70
2024/04/02 00:59:21;;;;;;;3.72;1.55;;;;;;;4.70;60.61;99894.88;5024612;28;20029;-70
2024/04/02 01:01:47;;;;;;;9.82;1.85;;;;;;;4.96;59.98;99895.81;5016263;28;20103;-69
2024/04/02 01:04:12;;;;;;;5.88;2.03;;;;;;;5.04;59.32;99905.03;5008319;28;20510;-69
2024/04/02 01:06:38;;;;;;;3.45;1.85;;;;;;;4.86;59.97;99894.41;5014552;28;20526;-69
2024/04/02 01:09:04;;;;;;;9.45;2.05;;;;;;;4.89;60.09;99899.50;5008748;28;20156;-69
2024/04/02 01:11:31;;;;;;;5.05;2.85;;;;;;;4.95;59.92;99902.75;5015164;28;20100;-70
2024/04/02 01:13:57;;;;;;;12.85;2.35;;;;;;;4.96;59.77;99898.41;5008943;28;20032;-71
2024/04/02 01:16:23;;;;;;;7.03;2.38;;;;;;;4.98;59.52;99905.22;5016184;28;20509;-69
2024/04/02 01:18:49;;;;;;;6.82;2.55;;;;;;;4.34;61.80;99909.75;5031246;28;20533;-69
2024/04/02 01:21:16;;;;;;;10.15;3.45;;;;;;;4.60;61.16;99911.56;5011272;28;20068;-70
2024/04/02 01:23:42;;;;;;;7.00;2.67;;;;;;;4.39;60.94;99911.31;5016276;28;20091;-70
2024/04/02 01:26:08;;;;;;;6.47;2.95;;;;;;;4.52;61.40;99914.41;5010247;28;20033;-70
2024/04/02 01:28:33;;;;;;;5.75;2.83;;;;;;;4.52;61.39;99917.00;5010936;28;20051;-70
2024/04/02 01:30:59;;;;;;;7.30;2.67;;;;;;;4.38;61.61;99913.94;5010938;28;20091;-70
2024/04/02 01:33:24;;;;;;;7.28;3.10;;;;;;;4.65;60.98;99922.63;5010119;28;20584;-70
2024/04/02 01:35:50;;;;;;;6.50;2.55;;;;;;;4.53;61.16;99925.59;5015872;28;20029;-70
2024/04/02 01:38:15;;;;;;;5.88;2.78;;;;;;;4.50;61.52;99926.53;5004653;28;20776;-70
2024/04/02 01:40:41;;;;;;;8.10;3.25;;;;;;;4.55;61.50;99921.22;5015131;28;20052;-70
2024/04/02 01:43:07;;;;;;;6.30;2.85;;;;;;;4.72;61.07;99915.50;5007294;28;20312;-69
2024/04/02 01:45:33;;;;;;;8.93;5.38;;;;;;;4.70;60.44;99907.81;5013955;28;20034;-70
2024/04/02 01:47:59;;;;;;;6.30;3.10;;;;;;;4.83;60.45;99914.31;5010494;28;20423;-70
2024/04/02 01:50:24;;;;;;;8.23;4.40;;;;;;;4.62;60.96;99912.38;5005602;28;20211;-70
2024/04/02 01:52:49;;;;;;;11.55;4.07;;;;;;;4.11;62.45;99915.59;5013026;28;20065;-70
2024/04/02 01:55:15;;;;;;;5.68;3.90;;;;;;;4.71;60.94;99914.66;5009088;28;20036;-70
2024/04/02 01:57:40;;;;;;;10.02;4.55;;;;;;;4.86;60.01;99909.94;5027121;28;20060;-70
2024/04/02 02:00:06;;;;;;;9.10;3.58;;;;;;;4.57;61.13;99922.88;5002161;28;20122;-70
2024/04/02 02:02:33;;;;;;;11.55;4.28;;;;;;;4.56;61.48;99907.38;5026925;28;20084;-69
2024/04/02 02:05:01;;;;;;;10.80;3.53;;;;;;;4.60;61.30;99908.97;5010700;28;20095;-70
2024/04/02 02:07:27;;;;;;;11.23;4.20;;;;;;;4.47;61.26;99915.41;5010744;28;20278;-70
2024/04/02 02:09:52;;;;;;;10.95;4.70;;;;;;;4.25;62.63;99908.28;5016269;28;20293;-70
2024/04/02 02:12:18;;;;;;;19.35;4.35;;;;;;;4.25;62.74;99910.03;5010961;28;20353;-70
2024/04/02 02:14:43;;;;;;;10.45;4.32;;;;;;;3.91;63.24;99909.25;5010607;28;21502;-66
2024/04/02 02:17:09;;;;;;;8.35;4.25;;;;;;;4.14;62.97;99906.03;5011519;28;20485;-68
2024/04/02 02:19:34;;;;;;;12.13;4.38;;;;;;;4.58;61.85;99906.44;5012055;28;20029;-68
2024/04/02 02:21:59;;;;;;;9.88;4.53;;;;;;;4.34;62.24;99918.38;5016293;28;20069;-70
2024/04/02 02:24:25;;;;;;;10.23;4.00;;;;;;;4.46;62.05;99916.31;5007439;28;20041;-70
2024/04/02 02:26:51;;;;;;;11.07;4.15;;;;;;;4.35;62.38;99909.72;5016359;28;20037;-69
2024/04/02 02:29:22;;;;;;;8.23;3.92;;;;;;;4.26;62.95;99911.75;5009191;28;21004;-70
2024/04/02 02:31:47;;;;;;;10.18;4.53;;;;;;;4.48;62.37;99910.22;5016415;28;20025;-68
2024/04/02 02:34:13;;;;;;;11.95;4.82;;;;;;;4.44;62.36;99913.78;5037505;28;20033;-68
2024/04/02 02:36:38;;;;;;;8.68;3.92;;;;;;;4.18;62.63;99912.78;5040966;28;20033;-68
2024/04/02 02:39:04;;;;;;;11.65;4.35;;;;;;;4.36;62.06;99916.59;5040048;28;20044;-70
2024/04/02 02:41:30;;;;;;;14.88;5.30;;;;;;;4.33;62.29;99916.69;5039791;28;20041;-69
2024/04/02 02:43:56;;;;;;;11.80;3.88;;;;;;;4.09;63.19;99909.63;5041745;28;20108;-69
2024/04/02 02:46:22;;;;;;;6.80;4.05;;;;;;;3.83;64.22;99911.22;5031278;28;21785;-69
2024/04/02 02:48:47;;;;;;;14.90;5.47;;;;;;;4.17;62.77;99920.59;5017303;28;20593;-70
2024/04/02 02:51:12;;;;;;;11.30;4.15;;;;;;;4.18;62.86;99922.28;4993766;28;20910;-69
2024/04/02 02:53:38;;;;;;;11.40;3.63;;;;;;;4.71;60.98;99929.38;5013872;28;21141;-69
2024/04/02 02:56:04;;;;;;;10.75;4.95;;;;;;;4.46;61.54;99930.09;5010967;28;20524;-69
2024/04/02 02:58:29;;;;;;;10.93;4.35;;;;;;;4.66;61.35;99923.50;5016400;28;20751;-69
2024/04/02 03:00:54;;;;;;;14.10;4.80;;;;;;;4.41;61.71;99932.81;5013415;28;20347;-70
2024/04/02 03:03:20;;;;;;;8.38;3.88;;;;;;;4.72;60.90;99924.16;5008875;28;20053;-70
2024/04/02 03:05:55;;;;;;;4.50;3.53;;;;;;;4.40;62.31;99928.53;5013732;28;20699;-69
2024/04/02 03:08:23;;;;;;;6.97;4.65;;;;;;;4.55;61.57;99934.16;5009645;28;20095;-70
2024/04/02 03:11:00;;;;;;;10.70;4.32;;;;;;;4.49;61.63;99934.34;5012235;28;20047;-70
2024/04/02 03:13:25;;;;;;;10.35;3.90;;;;;;;4.59;61.27;99933.19;5007367;28;20509;-70
2024/04/02 03:15:51;;;;;;;8.85;4.53;;;;;;;4.32;62.28;99940.88;5009858;28;20029;-69
2024/04/02 03:18:16;;;;;;;17.55;4.78;;;;;;;4.64;60.84;99941.66;4993807;28;20394;-69
2024/04/02 03:20:42;;;;;;;10.02;3.75;;;;;;;4.22;62.11;99944.59;5012103;28;20562;-69
2024/04/02 03:23:07;;;;;;;9.25;3.88;;;;;;;4.45;61.83;99945.66;5004708;28;20057;-69
2024/04/02 03:25:32;;;;;;;8.93;4.50;;;;;;;4.13;62.62;99948.28;5015744;28;20029;-69
2024/04/02 03:27:58;;;;;;;12.00;3.22;;;;;;;4.39;61.75;99942.38;5011129;28;20561;-69
2024/04/02 03:30:23;;;;;;;15.52;5.43;;;;;;;4.55;61.38;99941.94;5011660;28;20032;-69
2024/04/02 03:32:49;;;;;;;9.07;3.65;;;;;;;3.74;64.01;99947.66;5010039;28;20045;-70
2024/04/02 03:35:14;;;;;;;11.85;3.92;;;;;;;4.25;62.75;99944.50;5009182;28;20076;-68
2024/04/02 03:37:40;;;;;;;6.95;3.70;;;;;;;4.47;61.69;99949.06;5008418;28;20041;-68
2024/04/02 03:40:06;;;;;;;11.43;3.85;;;;;;;4.37;61.80;99946.75;5016918;28;20053;-68
2024/04/02 03:42:31;;;;;;;10.32;3.50;;;;;;;4.01;62.76;99951.22;5009155;28;20051;-67
2024/04/02 03:44:57;;;;;;;13.75;4.55;;;;;;;3.98;63.41;99954.75;5011030;28;20051;-67
2024/04/02 03:47:23;;;;;;;6.20;3.05;;;;;;;4.10;63.29;99955.28;5010093;28;20036;-69
2024/04/02 03:49:48;;;;;;;10.80;3.88;;;;;;;4.02;63.06;99953.75;5012454;28;20048;-69
2024/04/02 03:52:13;;;;;;;5.63;3.28;;;;;;;4.39;62.03;99957.91;5010477;28;20067;-68
2024/04/02 03:54:39;;;;;;;9.10;4.28;;;;;;;4.35;61.80;99961.47;5008905;28;20415;-69
2024/04/02 03:57:05;;;;;;;10.25;3.10;;;;;;;4.28;61.89;99970.28;5014294;28;20053;-67
2024/04/02 03:59:34;;;;;;;9.07;3.42;;;;;;;4.05;62.80;99983.00;5005382;28;20032;-68
2024/04/02 04:01:59;;;;;;;8.00;3.50;;;;;;;4.54;61.18;99971.28;5026868;28;20059;-68
2024/04/02 04:04:25;;;;;;;7.60;3.28;;;;;;;4.19;62.67;99976.56;5005054;28;20040;-69
2024/04/02 04:06:50;;;;;;;7.40;4.40;;;;;;;4.42;62.11;99983.66;5014809;28;20045;-68
2024/04/02 04:09:15;;;;;;;7.85;3.25;;;;;;;4.53;61.52;99979.94;5012215;28;20152;-68
2024/04/02 04:11:41;;;;;;;8.18;2.92;;;;;;;4.42;61.71;99983.66;5015331;28;20027;-69
2024/04/02 04:14:06;;;;;;;10.82;3.50;;;;;;;4.49;61.58;99983.50;5016809;28;20808;-69
2024/04/02 04:16:32;;;;;;;18.58;4.50;;;;;;;4.30;61.94;99984.03;5012819;28;20626;-69
2024/04/02 04:18:58;;;;;;;11.65;3.42;;;;;;;4.16;63.09;99989.59;5014919;28;20045;-70
2024/04/02 04:21:24;;;;;;;9.40;3.83;;;;;;;4.21;62.95;99985.13;5011344;28;20032;-69
2024/04/02 04:23:49;;;;;;;6.43;3.20;;;;;;;4.23;62.68;99982.53;5015110;28;20045;-66
2024/04/02 04:26:14;;;;;;;15.15;4.18;;;;;;;4.22;62.12;99991.16;5004349;28;20057;-74
2024/04/02 04:28:40;;;;;;;6.65;3.25;;;;;;;4.45;61.67;99993.09;5016395;28;20066;-70
2024/04/02 04:31:05;;;;;;;6.95;3.80;;;;;;;4.20;62.63;100005.88;5012996;28;20836;-70
2024/04/02 04:33:31;;;;;;;7.13;3.33;;;;;;;4.70;60.91;100008.78;5011604;28;20053;-72
2024/04/02 04:35:57;;;;;;;10.95;4.68;;;;;;;4.67;60.95;99998.50;4996573;28;20043;-71
2024/04/02 04:38:24;;;;;;;12.05;4.10;;;;;;;4.24;62.52;100006.63;5012572;28;20044;-72
2024/04/02 04:40:50;;;;;;;9.63;4.35;;;;;;;4.59;61.79;100008.25;5014071;28;20086;-73
2024/04/02 04:43:18;;;;;;;9.77;4.05;;;;;;;4.56;61.61;100023.84;5010503;28;20041;-71
2024/04/02 04:45:54;;;;;;;10.93;4.63;;;;;;;4.53;61.95;100021.34;4998836;28;20515;-72
2024/04/02 04:48:20;;;;;;;11.93;4.95;;;;;;;4.49;61.84;100035.25;5013220;28;20167;-71
2024/04/02 04:51:00;;;;;;;10.35;4.78;;;;;;;4.64;61.37;100027.91;5016617;28;20033;-72
2024/04/02 04:53:26;;;;;;;9.50;4.05;;;;;;;4.90;60.92;100025.47;5008989;28;20253;-74
2024/04/02 04:56:03;;;;;;;15.43;5.22;;;;;;;4.68;61.76;100038.19;5008445;28;20088;-71
2024/04/02 04:58:29;;;;;;;14.80;5.18;;;;;;;4.49;62.52;100043.03;5026247;28;20040;-71
2024/04/02 05:00:55;;;;;;;10.23;5.05;;;;;;;4.56;61.94;100036.78;5013184;28;20414;-72
2024/04/02 05:03:21;;;;;;;12.48;5.90;;;;;;;4.22;63.28;100037.72;5007049;28;20057;-71
2024/04/02 05:05:46;;;;;;;15.00;6.28;;;;;;;4.70;61.97;100032.06;5029085;28;20071;-72
2024/04/02 05:08:18;;;;;;;9.98;5.40;;;;;;;4.53;62.06;100032.53;5015350;28;20063;-68
2024/04/02 05:10:45;;;;;;;16.23;5.38;;;;;;;4.60;62.17;100040.97;5034772;28;20272;-68
2024/04/02 05:13:11;;;;;;;12.05;5.63;;;;;;;4.63;61.70;100044.34;5026399;28;20097;-67
2024/04/02 05:15:37;;;;;;;14.20;6.15;;;;;;;4.37;62.09;100047.66;5010700;28;20045;-71
2024/04/02 05:18:03;;;;;;;17.30;6.07;;;;;;;4.41;62.05;100054.44;5009903;28;20140;-71
2024/04/02 05:20:28;;;;;;;15.05;6.55;;;;;;;4.57;62.27;100054.03;5012527;28;21063;-70
2024/04/02 05:22:54;;;;;;;14.35;7.30;;;;;;;4.75;61.65;100052.66;5013428;28;20047;-71
2024/04/02 05:25:20;;;;;;;16.90;7.63;;;;;;;4.34;63.18;100055.50;5009956;28;20047;-69
2024/04/02 05:27:45;;;;;;;19.05;9.43;;;;;;;4.43;62.61;100063.00;5028219;28;20141;-71
2024/04/02 05:30:12;;;;;;;16.63;6.90;;;;;;;4.86;61.53;100062.69;5036573;28;20077;-67
2024/04/02 05:32:38;;;;;;;20.05;7.75;;;;;;;5.00;61.14;100063.16;5021388;28;20600;-69
2024/04/02 05:35:04;;;;;;;17.33;7.50;;;;;;;4.98;60.96;100059.75;5015678;28;20810;-70
2024/04/02 05:37:30;;;;;;;16.50;8.05;;;;;;;4.64;61.72;100065.88;5008142;28;20114;-70
2024/04/02 05:39:55;;;;;;;16.60;8.38;;;;;;;5.20;60.42;100071.16;5012981;28;20033;-70
2024/04/02 05:42:21;;;;;;;17.88;8.63;;;;;;;4.95;60.79;100073.66;5003003;28;20079;-70
2024/04/02 05:44:47;;;;;;;20.70;9.55;;;;;;;4.55;62.47;100084.25;5012113;28;20047;-68
2024/04/02 05:47:13;;;;;;;18.17;9.60;;;;;;;4.98;60.98;100083.91;5012521;28;20048;-68
2024/04/02 05:49:38;;;;;;;19.05;8.35;;;;;;;4.87;61.27;100091.13;5006722;28;20044;-69
2024/04/02 05:52:04;;;;;;;19.00;8.30;;;;;;;4.86;61.17;100081.66;5009840;28;20060;-70
2024/04/02 05:54:30;;;;;;;19.13;8.63;;;;;;;5.15;60.71;100086.00;5004299;28;20083;-72
2024/04/02 05:56:58;;;;;;;19.98;9.13;;;;;;;5.03;61.27;100094.13;5014294;28;20652;-69
2024/04/02 05:59:23;;;;;;;11.98;7.05;;;;;;;4.88;61.34;100084.22;5003612;28;20565;-69
2024/04/02 06:01:49;;;;;;;14.50;8.55;;;;;;;5.18;60.51;100096.28;5015491;28;20032;-68
2024/04/02 06:04:14;;;;;;;14.05;8.57;;;;;;;5.50;59.60;100097.03;5011915;28;20200;-72
2024/04/02 06:06:40;;;;;;;17.35;8.15;;;;;;;5.36;59.40;100092.28;5013122;28;20818;-67
2024/04/02 06:09:06;;;;;;;16.10;8.98;;;;;;;5.55;59.04;100092.56;5016294;28;20045;-70
2024/04/02 06:11:32;;;;;;;15.73;7.60;;;;;;;6.60;57.72;100095.13;5005971;28;20040;-68
2024/04/02 06:13:57;;;;;;;15.32;8.88;;;;;;;6.53;56.86;100090.19;5013151;28;20135;-71
2024/04/02 06:16:23;;;;;;;12.00;7.43;;;;;;;6.98;55.04;100092.03;5018338;28;20040;-66
2024/04/02 06:18:48;;;;;;;10.20;6.60;;;;;;;6.80;55.30;100094.41;5014915;28;20078;-67
2024/04/02 06:21:15;;;;;;;14.82;7.03;;;;;;;6.97;55.04;100095.53;5010093;28;20037;-66
2024/04/02 06:23:41;;;;;;;10.38;6.80;;;;;;;7.76;52.73;100093.34;5004106;28;21304;-66
2024/04/02 06:26:06;;;;;;;11.90;6.93;;;;;;;7.36;53.74;100100.97;5010510;28;20803;-68
2024/04/02 06:28:32;;;;;;;12.43;5.78;;;;;;;7.30;53.61;100102.03;5009635;28;20130;-64
2024/04/02 06:30:57;;;;;;;9.23;5.57;;;;;;;9.05;49.44;100099.06;5014548;28;20346;-68
2024/04/02 06:33:23;;;;;;;10.20;6.78;;;;;;;8.43;51.64;100100.94;5010028;28;20055;-70
2024/04/02 06:35:48;;;;;;;11.15;5.60;;;;;;;9.55;48.85;100102.84;5011782;28;20039;-71
2024/04/02 06:38:14;;;;;;;7.75;5.00;;;;;;;8.03;50.93;100107.84;5011977;28;20040;-70
2024/04/02 06:40:41;;;;;;;7.70;4.47;;;;;;;8.97;49.80;100109.00;5009125;28;21001;-67
2024/04/02 06:43:06;;;;;;;14.00;5.22;;;;;;;9.79;47.07;100103.41;5024545;28;20061;-70
2024/04/02 06:45:32;;;;;;;9.98;5.18;;;;;;;10.42;46.68;100100.28;5009078;28;20247;-69
2024/04/02 06:47:58;;;;;;;7.85;4.40;;;;;;;10.55;45.96;100101.34;5013906;28;20040;-70
2024/04/02 06:50:23;;;;;;;9.52;4.97;;;;;;;10.02;45.30;100102.31;5007390;28;20056;-70
2024/04/02 06:52:49;;;;;;;8.30;4.57;;;;;;;9.54;47.07;100114.16;5026617;28;20060;-67
2024/04/02 06:55:15;;;;;;;12.15;4.30;;;;;;;9.05;48.65;100104.25;5013655;28;20032;-68
2024/04/02 06:57:40;;;;;;;7.93;5.25;;;;;;;9.03;49.69;100106.13;5006738;28;21884;-67
2024/04/02 07:00:07;;;;;;;10.32;5.35;;;;;;;9.62;47.49;100106.84;5014706;28;20824;-67
2024/04/02 07:02:33;;;;;;;5.20;4.43;;;;;;;10.21;46.66;100102.22;5003726;28;20482;-65
2024/04/02 07:04:58;;;;;;;13.18;5.05;;;;;;;10.09;46.64;100108.06;4997963;28;20574;-65
2024/04/02 07:07:24;;;;;;;6.68;4.53;;;;;;;9.70;47.19;100116.88;5006596;28;20045;-65
2024/04/02 07:09:50;;;;;;;8.85;4.20;;;;;;;9.93;47.37;100113.22;5013742;28;20040;-66
2024/04/02 07:12:15;;;;;;;7.30;4.47;;;;;;;9.89;46.80;100138.59;5012205;28;20045;-66
2024/04/02 07:14:41;;;;;;;7.80;4.20;;;;;;;10.77;46.91;100126.31;5006247;28;20151;-66
2024/04/02 07:17:07;;;;;;;7.38;3.50;;;;;;;11.36;43.64;100129.31;5010355;28;20491;-67
2024/04/02 07:19:32;;;;;;;5.97;3.63;;;;;;;11.09;44.69;100131.66;5008014;28;20025;-67
2024/04/02 07:21:58;;;;;;;5.75;2.90;;;;;;;11.53;43.54;100125.72;5013863;28;20120;-68
2024/04/02 07:24:23;;;;;;;5.97;3.55;;;;;;;10.61;46.60;100145.41;5006707;28;20069;-68
2024/04/02 07:26:49;;;;;;;4.63;3.38;;;;;;;10.18;46.05;100149.38;4997329;28;20119;-68
2024/04/02 07:29:14;;;;;;;5.25;3.72;;;;;;;8.65;50.33;100144.25;5011087;28;20127;-68
2024/04/02 07:31:39;;;;;;;6.82;3.33;;;;;;;8.62;50.54;100150.47;5010713;28;20112;-67
2024/04/02 07:34:06;;;;;;;9.10;3.70;;;;;;;9.78;48.31;100151.28;5010545;28;20059;-68
2024/04/02 07:36:31;;;;;;;6.10;2.80;;;;;;;11.11;45.59;100154.19;5006343;28;20305;-68
2024/04/02 07:38:56;;;;;;;5.05;3.00;;;;;;;11.48;43.57;100153.94;5016183;28;20707;-67
2024/04/02 07:41:22;;;;;;;8.45;2.63;;;;;;;10.81;45.32;100144.41;5013291;28;20247;-68
2024/04/02 07:43:47;;;;;;;5.55;3.42;;;;;;;9.98;47.15;100166.03;5007781;28;20128;-67
2024/04/02 07:46:13;;;;;;;5.43;3.13;;;;;;;11.20;44.49;100163.31;5012533;28;20488;-67
2024/04/02 07:48:38;;;;;;;5.28;2.15;;;;;;;10.74;45.51;100168.31;5013364;28;20052;-67
2024/04/02 07:51:11;;;;;;;5.60;2.42;;;;;;;10.33;45.63;100159.06;5015600;28;20041;-67
2024/04/02 07:53:36;;;;;;;3.70;2.38;;;;;;;10.79;45.06;100166.28;5009401;28;20033;-67
2024/04/02 07:56:03;;;;;;;7.18;3.22;;;;;;;11.86;44.20;100168.38;5040197;28;20648;-67
2024/04/02 07:58:28;;;;;;;6.93;2.50;;;;;;;12.03;42.64;100182.28;5008909;28;21112;-66
2024/04/02 08:00:54;;;;;;;6.95;3.20;;;;;;;11.25;44.40;100175.19;5015403;28;20627;-67
2024/04/02 08:03:20;;;;;;;5.38;2.45;;;;;;;11.32;44.34;100198.41;5010458;28;20944;-67
2024/04/02 08:05:54;;;;;;;10.02;3.88;;;;;;;10.25;47.07;100194.31;5012442;28;21081;-67
2024/04/02 08:08:20;;;;;;;9.13;2.70;;;;;;;11.13;44.39;100193.31;5010852;28;20049;-67
2024/04/02 08:10:45;;;;;;;8.00;3.42;;;;;;;10.05;47.05;100190.91;5013534;28;21259;-68
2024/04/02 08:13:11;;;;;;;7.47;2.50;;;;;;;10.96;45.12;100187.22;5011655;28;20868;-68
2024/04/02 08:15:36;;;;;;;7.68;3.00;;;;;;;11.15;44.26;100194.94;5024803;28;20049;-67
2024/04/02 08:18:02;;;;;;;5.10;2.60;;;;;;;10.68;46.38;100200.81;5016542;28;20037;-67
2024/04/02 08:20:27;;;;;;;7.13;2.85;;;;;;;10.29;47.20;100211.53;5012004;28;20477;-67
2024/04/02 08:22:54;;;;;;;9.55;2.78;;;;;;;10.29;46.28;100208.91;5012560;28;20491;-67
2024/04/02 08:25:20;;;;;;;5.72;2.20;;;;;;;11.11;45.88;100211.72;5006978;28;20132;-68
2024/04/02 08:27:45;;;;;;;8.82;2.95;;;;;;;12.02;43.81;100212.03;5010468;28;20343;-67
2024/04/02 08:30:12;;;;;;;10.18;2.83;;;;;;;12.61;41.98;100209.50;5015658;28;20028;-67
2024/04/02 08:32:37;;;;;;;4.30;2.47;;;;;;;12.20;41.75;100213.63;5003581;28;20037;-68
2024/04/02 08:35:04;;;;;;;4.47;2.30;;;;;;;12.16;43.58;100214.72;5032956;28;20570;-68
2024/04/02 08:37:30;;;;;;;3.13;1.92;;;;;;;12.24;42.31;100222.13;5022985;28;20033;-66
2024/04/02 08:39:56;;;;;;;8.00;2.63;;;;;;;11.46;43.65;100222.91;5018944;28;20041;-68
2024/04/02 08:42:25;;;;;;;7.20;2.78;;;;;;;11.19;45.15;100227.84;5015543;28;20186;-67
2024/04/02 08:44:51;;;;;;;6.47;2.13;;;;;;;11.03;45.88;100233.03;5009926;28;20048;-68
2024/04/02 08:47:17;;;;;;;6.68;2.38;;;;;;;11.08;45.77;100227.56;5029274;28;21106;-68
2024/04/02 08:49:45;;;;;;;3.78;1.98;;;;;;;11.11;45.50;100234.41;5011175;28;20143;-67
2024/04/02 08:52:10;;;;;;;4.18;2.40;;;;;;;9.87;48.57;100239.63;5014639;28;20345;-68
2024/04/02 08:54:36;;;;;;;6.50;2.83;;;;;;;9.42;48.75;100246.03;5004505;28;21383;-67
2024/04/02 08:57:03;;;;;;;6.53;2.47;;;;;;;10.07;48.82;100249.13;5015892;28;20052;-68
2024/04/02 08:59:31;;;;;;;4.30;2.45;;;;;;;9.26;49.83;100252.84;5011654;28;20029;-67
2024/04/02 09:02:00;;;;;;;3.50;2.60;;;;;;;8.87;50.88;100258.88;5016393;28;20359;-67
2024/04/02 09:04:29;;;;;;;6.20;3.00;;;;;;;9.23;50.50;100258.19;5025417;28;20033;-68
2024/04/02 09:06:55;;;;;;;4.57;2.92;;;;;;;9.11;50.25;100259.56;5009961;28;20032;-68
2024/04/02 09:09:24;;;;;;;5.18;2.67;;;;;;;8.42;51.82;100267.66;5011326;28;20041;-68
2024/04/02 09:11:51;;;;;;;9.63;3.65;;;;;;;8.85;51.07;100269.38;5010225;28;20128;-67
2024/04/02 09:14:18;;;;;;;4.70;2.90;;;;;;;8.43;51.88;100266.75;5012260;28;20076;-67
2024/04/02 09:16:44;;;;;;;7.93;3.25;;;;;;;8.70;51.55;100270.00;5009065;28;20028;-68
2024/04/02 09:19:09;;;;;;;11.55;3.80;;;;;;;8.07;52.89;100264.69;5014103;28;20052;-67
2024/04/02 09:21:34;;;;;;;8.60;3.70;;;;;;;7.94;52.78;100266.94;5005399;28;20020;-66
2024/04/02 09:24:00;;;;;;;7.00;3.45;;;;;;;7.87;53.03;100278.47;5014281;28;20574;-68
2024/04/02 09:26:26;;;;;;;11.98;3.63;;;;;;;7.92;53.13;100276.56;5006302;28;21605;-67
2024/04/02 09:28:52;;;;;;;6.13;3.42;;;;;;;8.41;52.71;100279.84;5013722;28;20719;-67
2024/04/02 09:31:17;;;;;;;8.25;2.90;;;;;;;7.79;53.19;100277.94;5016652;28;20041;-68
2024/04/02 09:33:47;;;;;;;7.43;2.70;;;;;;;7.51;54.15;100279.78;5008894;28;20078;-67
2024/04/02 09:36:41;;;;;;;6.53;3.15;;;;;;;7.97;53.12;100274.63;5014065;28;20044;-66
2024/04/02 09:39:10;;;;;;;4.55;2.72;;;;;;;8.12;52.93;100283.59;5019766;28;20025;-68
2024/04/02 09:41:39;;;;;;;7.85;2.85;;;;;;;8.35;52.52;100288.72;5008307;28;20589;-68
2024/04/02 09:44:07;;;;;;;4.80;3.00;;;;;;;7.95;53.46;100282.47;5018563;28;20057;-66
2024/04/02 09:46:34;;;;;;;8.38;2.88;;;;;;;8.66;51.98;100284.03;5011752;28;20257;-66
2024/04/02 09:49:00;;;;;;;3.10;2.40;;;;;;;8.74;51.71;100285.47;5017963;28;20048;-68
2024/04/02 09:51:26;;;;;;;4.60;3.10;;;;;;;8.63;52.27;100289.38;5012376;28;20462;-68
2024/04/02 09:53:54;;;;;;;5.63;2.95;;;;;;;9.19;51.19;100294.00;5010516;28;20080;-67
2024/04/02 09:56:22;;;;;;;4.38;3.28;;;;;;;8.78;52.66;100293.97;5030847;28;20041;-67
2024/04/02 09:58:48;;;;;;;6.47;3.60;;;;;;;8.68;52.75;100288.28;5009576;28;20037;-67
2024/04/02 10:01:19;;;;;;;5.35;2.78;;;;;;;8.94;52.37;100288.97;5011361;28;20045;-67
2024/04/02 10:03:48;;;;;;;11.80;3.33;;;;;;;8.60;52.25;100292.09;5022512;28;20535;-68
2024/04/02 10:06:13;;;;;;;11.23;3.08;;;;;;;9.05;52.04;100296.34;5014877;28;20037;-68
2024/04/02 10:08:39;;;;;;;7.07;2.38;;;;;;;9.11;51.71;100298.69;5006353;28;20053;-67
2024/04/02 10:11:08;;;;;;;7.15;3.03;;;;;;;8.38;53.25;100307.75;5016483;28;20037;-69
2024/04/02 10:13:37;;;;;;;4.80;2.00;;;;;;;8.67;52.16;100301.34;5011330;28;20045;-67
2024/04/02 10:16:09;;;;;;;3.63;2.28;;;;;;;9.10;51.14;100294.41;5019381;28;20139;-67
2024/04/02 10:18:45;;;;;;;6.75;3.22;;;;;;;8.83;51.19;100302.47;5015791;28;20041;-67
2024/04/02 10:21:11;;;;;;;9.40;3.08;;;;;;;8.29;52.70;100306.34;5016244;28;20516;-68
2024/04/02 10:23:41;;;;;;;7.95;2.78;;;;;;;8.42;52.88;100311.94;5021143;28;20048;-67
2024/04/02 10:26:11;;;;;;;11.88;2.90;;;;;;;8.52;52.66;100298.47;5048894;28;20051;-67
2024/04/02 10:28:36;;;;;;;7.10;3.25;;;;;;;8.60;52.51;100305.13;5043899;28;20131;-69
2024/04/02 10:31:16;;;;;;;4.20;3.03;;;;;;;8.57;53.15;100306.94;5047387;28;20048;-66
2024/04/02 10:33:43;;;;;;;7.60;3.00;;;;;;;8.88;52.51;100305.72;5035900;28;20417;-67
2024/04/02 10:36:12;;;;;;;8.15;3.60;;;;;;;8.68;53.33;100303.91;5040184;28;20025;-67
2024/04/02 10:38:37;;;;;;;6.47;3.10;;;;;;;8.86;52.78;100312.75;5025134;28;20492;-68
2024/04/02 10:41:04;;;;;;;9.25;3.50;;;;;;;9.44;51.54;100309.41;5019169;28;20800;-68
2024/04/02 10:43:29;;;;;;;12.02;3.33;;;;;;;9.57;50.51;100304.50;5028672;28;20065;-67
2024/04/02 10:45:56;;;;;;;11.23;3.28;;;;;;;9.70;50.19;100303.03;5033641;28;20865;-71
2024/04/02 10:48:22;;;;;;;8.27;2.97;;;;;;;9.83;49.78;100305.94;5014993;28;20080;-67
2024/04/02 10:50:50;;;;;;;15.07;3.75;;;;;;;9.38;50.37;100304.44;5006432;28;20029;-68
2024/04/02 10:53:15;;;;;;;5.85;3.08;;;;;;;9.97;50.30;100302.72;5030943;28;20584;-67
2024/04/02 10:55:41;;;;;;;6.63;2.65;;;;;;;10.62;48.18;100296.06;5008026;28;20029;-67
2024/04/02 10:58:07;;;;;;;5.05;1.55;;;;;;;10.17;47.17;100293.94;5017036;28;20049;-68
2024/04/02 11:00:32;;;;;;;3.05;1.80;;;;;;;9.78;48.95;100298.28;5022783;28;20345;-68
2024/04/02 11:02:58;;;;;;;5.40;1.58;;;;;;;9.94;47.92;100303.66;5020996;28;20529;-67
2024/04/02 11:05:25;;;;;;;6.93;1.27;;;;;;;10.36;46.85;100305.19;5028807;28;20572;-67
2024/04/02 11:07:50;;;;;;;7.03;1.92;;;;;;;9.99;48.03;100300.84;5005820;28;20460;-67
2024/04/02 11:10:16;;;;;;;6.88;1.30;;;;;;;9.42;49.36;100305.19;5018563;28;20033;-67
2024/04/02 11:12:42;;;;;;;4.47;1.98;;;;;;;9.13;51.18;100309.88;5003500;28;20498;-67
2024/04/02 11:15:09;;;;;;;5.07;1.83;;;;;;;9.14;52.38;100327.22;5014565;28;21052;-67
2024/04/02 11:17:35;;;;;;;4.75;2.00;;;;;;;9.04;54.00;100326.78;5010947;28;20048;-68
2024/04/02 11:20:01;;;;;;;4.50;1.67;;;;;;;8.50;55.53;100326.34;5012260;28;20037;-68
2024/04/02 11:25:14;;;;;;;3.63;1.27;;;;;;;8.71;54.89;100326.41;5016845;28;20037;-68
2024/04/02 11:27:43;;;;;;;2.33;1.20;;;;;;;8.27;56.22;100329.00;5011588;28;20055;-68
2024/04/02 11:30:10;;;;;;;1.90;1.10;;;;;;;8.35;56.93;100333.00;5014090;28;20657;-68